Dades meteomassalio
Diari Summary for Octubre 29, 2017 Units:  English    Metric   Both
« Previous Day
Next Day »
Diari Semanal Mensual Anual Personalitzat
  Maxima: Minima: Mijana:
Temperatura: TemperatureC °F 2.2 °F 11.5 °F
Rosada: DewpointC °F -2.2 °F 3.8 °F
Humitat: Humidity % 42 % 61 %
Velocitat del vent: WindSpeedKMH mph 0.0 mph 13.8 mph
Racha vent: WindSpeedGustKMH mph - -
Vent:- - SSW
Pressio: PressurehPa in 1021.9 in -
Pluja: 0.0 in    
Historical Graphs
 
 
Tabular Data for Octubre 29, 2017
Time Temperature Dew Point Pressure Wind Wind Speed Wind Gust Humidity Rainfall Rate (Hourly) solar Conditions
TemperatureC °F DewpointC °F PressurehPa in Calm     Humidity % HourlyPrecipMM in SolarRadiationWatts/m^2 W/m2 Conditions
00:04 10.0 °F 4.2 °F 1027.0 in South 13.0 mph 13.0 mph 67 % 0.0 in 0.0 W/m2 CLR
00:09 10.0 °F 4.2 °F 1027.0 in South 11.1 mph 11.1 mph 67 % 0.0 in 0.0 W/m2 CLR
00:14 10.0 °F 4.2 °F 1027.0 in South 11.1 mph 11.1 mph 67 % 0.0 in 0.0 W/m2 CLR
00:19 10.0 °F 4.2 °F 1027.0 in South 9.3 mph 9.3 mph 67 % 0.0 in 0.0 W/m2 CLR
00:24 9.4 °F 3.6 °F 1027.0 in SSE 7.4 mph 7.4 mph 67 % 0.0 in 0.0 W/m2 CLR
00:29 9.4 °F 3.6 °F 1027.0 in SSE 11.1 mph 11.1 mph 67 % 0.0 in 0.0 W/m2 CLR
00:34 10.0 °F 4.3 °F 1027.0 in SSE 11.1 mph 11.1 mph 68 % 0.0 in 0.0 W/m2 CLR
00:39 10.6 °F 4.9 °F 1027.0 in South 9.3 mph 9.3 mph 68 % 0.0 in 0.0 W/m2 CLR
00:44 11.1 °F 5.4 °F 1027.0 in SSE 5.6 mph 5.6 mph 68 % 0.0 in 0.0 W/m2 CLR
00:49 11.7 °F 6.2 °F 1027.0 in South 7.4 mph 7.4 mph 69 % 0.0 in 0.0 W/m2 CLR
00:54 11.7 °F 6.4 °F 1027.0 in SE 11.1 mph 11.1 mph 70 % 0.0 in 0.0 W/m2 CLR
00:59 11.7 °F 6.4 °F 1027.0 in SSE 11.1 mph 11.1 mph 70 % 0.0 in 0.0 W/m2 CLR
01:04 12.2 °F 6.9 °F 1027.0 in SSE 16.7 mph 16.7 mph 70 % 0.0 in 0.0 W/m2 CLR
01:09 11.7 °F 6.4 °F 1027.0 in SSE 9.3 mph 9.3 mph 70 % 0.0 in 0.0 W/m2 CLR
01:14 11.7 °F 6.4 °F 1027.3 in SE 13.0 mph 13.0 mph 70 % 0.0 in 0.0 W/m2 CLR
01:19 11.7 °F 6.4 °F 1027.3 in SSE 11.1 mph 11.1 mph 70 % 0.0 in 0.0 W/m2 CLR
01:24 11.7 °F 6.4 °F 1027.0 in SSE 11.3 mph 11.3 mph 70 % 0.0 in 0.0 W/m2 CLR
01:29 11.7 °F 6.4 °F 1027.0 in SSE 13.0 mph 13.0 mph 70 % 0.0 in 0.0 W/m2 CLR
01:34 11.1 °F 5.8 °F 1027.0 in South 8.0 mph 8.0 mph 70 % 0.0 in 0.0 W/m2 CLR
01:39 10.6 °F 5.1 °F 1027.0 in SSW 11.3 mph 11.3 mph 69 % 0.0 in 0.0 W/m2 CLR
01:44 10.6 °F 5.1 °F 1027.0 in South 16.7 mph 16.7 mph 69 % 0.0 in 0.0 W/m2 CLR
01:49 10.6 °F 5.1 °F 1027.0 in South 11.1 mph 11.1 mph 69 % 0.0 in 0.0 W/m2 CLR
01:54 10.6 °F 5.1 °F 1026.6 in SSE 14.5 mph 14.5 mph 69 % 0.0 in 0.0 W/m2 CLR
01:59 10.6 °F 5.1 °F 1027.0 in South 8.0 mph 8.0 mph 69 % 0.0 in 0.0 W/m2 CLR
02:04 10.6 °F 5.1 °F 1026.6 in South 13.0 mph 13.0 mph 69 % 0.0 in 0.0 W/m2 CLR
02:09 10.6 °F 4.9 °F 1026.6 in South 14.8 mph 14.8 mph 68 % 0.0 in 0.0 W/m2 CLR
02:14 10.6 °F 4.9 °F 1027.0 in SSE 14.8 mph 14.8 mph 68 % 0.0 in 0.0 W/m2 CLR
02:19 10.6 °F 4.9 °F 1026.6 in Calm     68 % 0.0 in 0.0 W/m2 CLR
02:24 10.0 °F 4.3 °F 1027.0 in South 8.0 mph 8.0 mph 68 % 0.0 in 0.0 W/m2 CLR
02:29 9.4 °F 4.1 °F 1027.0 in SSE 9.3 mph 9.3 mph 69 % 0.0 in 0.0 W/m2 CLR
02:34 8.9 °F 3.5 °F 1026.6 in SSE 9.3 mph 9.3 mph 69 % 0.0 in 0.0 W/m2 CLR
02:39 8.3 °F 3.0 °F 1026.6 in South 9.7 mph 9.7 mph 69 % 0.0 in 0.0 W/m2 CLR
02:44 7.8 °F 2.4 °F 1026.6 in SSE 9.3 mph 9.3 mph 69 % 0.0 in 0.0 W/m2 CLR
02:49 7.8 °F 2.4 °F 1026.6 in SSE 8.0 mph 8.0 mph 69 % 0.0 in 0.0 W/m2 CLR
02:54 7.2 °F 1.9 °F 1026.6 in South 5.6 mph 5.6 mph 69 % 0.0 in 0.0 W/m2 CLR
02:59 6.7 °F 1.4 °F 1026.6 in SSE 4.8 mph 4.8 mph 69 % 0.0 in 0.0 W/m2 CLR
02:04 6.7 °F 1.6 °F 1026.6 in South 9.3 mph 9.3 mph 70 % 0.0 in 0.0 W/m2 CLR
02:09 6.7 °F 1.6 °F 1026.6 in SSE 14.8 mph 14.8 mph 70 % 0.0 in 0.0 W/m2 CLR
02:14 6.1 °F 1.1 °F 1026.6 in SSE 9.3 mph 9.3 mph 70 % 0.0 in 0.0 W/m2 CLR
02:19 6.1 °F 1.1 °F 1026.6 in SSE 5.6 mph 5.6 mph 70 % 0.0 in 0.0 W/m2 CLR
02:24 6.1 °F 1.1 °F 1026.6 in SSE 9.7 mph 9.7 mph 70 % 0.0 in 0.0 W/m2 CLR
02:29 5.6 °F 0.5 °F 1026.6 in SSE 11.1 mph 11.1 mph 70 % 0.0 in 0.0 W/m2 CLR
02:34 5.6 °F 0.5 °F 1026.6 in SSE 8.0 mph 8.0 mph 70 % 0.0 in 0.0 W/m2 CLR
02:39 5.6 °F 0.5 °F 1026.6 in SSE 9.3 mph 9.3 mph 70 % 0.0 in 0.0 W/m2 CLR
02:45 5.6 °F 0.5 °F 1026.6 in SSE 11.1 mph 11.1 mph 70 % 0.0 in 0.0 W/m2 CLR
02:50 5.6 °F 0.5 °F 1026.6 in SSE 9.3 mph 9.3 mph 70 % 0.0 in 0.0 W/m2 CLR
02:55 5.6 °F 0.5 °F 1026.6 in South 13.0 mph 13.0 mph 70 % 0.0 in 0.0 W/m2 CLR
03:00 5.6 °F 0.3 °F 1026.6 in SSE 14.8 mph 14.8 mph 69 % 0.0 in 0.0 W/m2 CLR
03:05 5.0 °F -0.2 °F 1026.3 in South 13.0 mph 13.0 mph 69 % 0.0 in 0.0 W/m2 CLR
03:10 5.0 °F -0.2 °F 1026.3 in South 11.1 mph 11.1 mph 69 % 0.0 in 0.0 W/m2 CLR
03:15 5.0 °F -0.2 °F 1026.3 in South 14.8 mph 14.8 mph 69 % 0.0 in 0.0 W/m2 CLR
03:20 5.0 °F -0.2 °F 1026.3 in SSE 13.0 mph 13.0 mph 69 % 0.0 in 0.0 W/m2 CLR
03:25 5.0 °F -0.2 °F 1026.3 in SSE 14.5 mph 14.5 mph 69 % 0.0 in 0.0 W/m2 CLR
03:30 5.0 °F -0.4 °F 1026.3 in SSE 9.3 mph 9.3 mph 68 % 0.0 in 0.0 W/m2 CLR
03:35 4.4 °F -0.9 °F 1026.3 in SSW 9.3 mph 9.3 mph 68 % 0.0 in 0.0 W/m2 CLR
03:40 4.4 °F -0.9 °F 1026.3 in South 11.1 mph 11.1 mph 68 % 0.0 in 0.0 W/m2 CLR
03:45 4.4 °F -0.9 °F 1026.0 in SSE 9.3 mph 9.3 mph 68 % 0.0 in 0.0 W/m2 CLR
03:50 4.4 °F -0.9 °F 1026.0 in Calm     68 % 0.0 in 0.0 W/m2 CLR
03:55 4.4 °F -0.8 °F 1026.0 in Calm     69 % 0.0 in 0.0 W/m2 CLR
04:00 4.4 °F -0.8 °F 1026.0 in Calm     69 % 0.0 in 0.0 W/m2 CLR
04:05 4.4 °F -0.8 °F 1026.0 in South 7.4 mph   69 % 0.0 in 0.0 W/m2 CLR
04:10 4.4 °F -0.8 °F 1026.0 in Calm     69 % 0.0 in 0.0 W/m2 CLR
04:15 3.9 °F -1.1 °F 1026.0 in Calm     70 % 0.0 in 0.0 W/m2 CLR
04:20 3.9 °F -0.7 °F 1026.0 in Calm     72 % 0.0 in 0.0 W/m2 CLR
04:21 3.9 °F -0.7 °F 1026.0 in Calm     72 % 0.0 in 0.0 W/m2 CLR
04:23 3.9 °F -0.5 °F 1026.0 in Calm     73 % 0.0 in 0.0 W/m2 CLR
04:24 3.9 °F -0.5 °F 1026.0 in Calm     73 % 0.0 in 0.0 W/m2 CLR
04:26 3.9 °F -0.5 °F 1026.3 in Calm     73 % 0.0 in 0.0 W/m2 CLR
04:27 3.9 °F -0.5 °F 1026.0 in Calm     73 % 0.0 in 0.0 W/m2 CLR
04:32 3.9 °F -0.3 °F 1026.3 in South 3.2 mph 3.2 mph 74 % 0.0 in 0.0 W/m2 CLR
04:37 3.9 °F -0.3 °F 1026.0 in South 5.6 mph 5.6 mph 74 % 0.0 in 0.0 W/m2 CLR
04:38 3.9 °F -0.3 °F 1026.0 in South 3.7 mph   74 % 0.0 in 0.0 W/m2 CLR
04:42 3.3 °F -1.1 °F 1026.3 in Calm     73 % 0.0 in 0.0 W/m2 CLR
04:47 3.3 °F -1.1 °F 1026.3 in Calm     73 % 0.0 in 0.0 W/m2 CLR
04:52 3.3 °F -0.9 °F 1026.0 in Calm     74 % 0.0 in 0.0 W/m2 CLR
04:57 3.3 °F -0.7 °F 1026.0 in Calm     75 % 0.0 in 0.0 W/m2 CLR
05:02 3.3 °F -0.5 °F 1026.0 in Calm     76 % 0.0 in 0.0 W/m2 CLR
05:07 3.3 °F -0.2 °F 1026.0 in SSE 7.4 mph 7.4 mph 78 % 0.0 in 0.0 W/m2 CLR
05:12 3.3 °F -0.2 °F 1026.0 in SSE 8.0 mph 8.0 mph 78 % 0.0 in 0.0 W/m2 CLR
05:17 2.8 °F -0.5 °F 1026.0 in South 9.3 mph 9.3 mph 79 % 0.0 in 0.0 W/m2 CLR
05:22 2.8 °F -1.1 °F 1026.3 in Calm     76 % 0.0 in 0.0 W/m2 CLR
05:27 2.8 °F -0.8 °F 1026.3 in Calm     77 % 0.0 in 0.0 W/m2 CLR
05:32 2.8 °F -0.7 °F 1026.3 in South 3.7 mph 3.7 mph 78 % 0.0 in 0.0 W/m2 CLR
05:37 2.8 °F -0.5 °F 1026.3 in SSE 11.3 mph 11.3 mph 79 % 0.0 in 0.0 W/m2 CLR
05:42 2.8 °F -0.5 °F 1026.3 in SSE 11.1 mph 11.1 mph 79 % 0.0 in 0.0 W/m2 CLR
05:47 2.8 °F -0.5 °F 1026.3 in SSE 9.3 mph 9.3 mph 79 % 0.0 in 0.0 W/m2 CLR
05:52 2.8 °F -0.3 °F 1026.3 in South 7.4 mph 7.4 mph 80 % 0.0 in 0.0 W/m2 CLR
05:57 2.8 °F -0.5 °F 1026.3 in Calm     79 % 0.0 in 0.0 W/m2 CLR
06:02 2.8 °F -0.7 °F 1026.3 in Calm     78 % 0.0 in 0.0 W/m2 CLR
06:07 2.8 °F -0.7 °F 1026.3 in Calm     78 % 0.0 in 0.0 W/m2 CLR
06:12 2.8 °F -0.7 °F 1026.3 in Calm     78 % 0.0 in 0.0 W/m2 CLR
06:17 2.8 °F -0.7 °F 1026.3 in Calm     78 % 0.0 in 0.0 W/m2 CLR
06:22 2.8 °F -0.7 °F 1026.3 in Calm     78 % 0.0 in 0.0 W/m2 CLR
06:27 2.2 °F -1.1 °F 1026.3 in Calm     79 % 0.0 in 0.0 W/m2 CLR
06:32 2.2 °F -1.1 °F 1026.3 in Calm     79 % 0.0 in 0.0 W/m2 CLR
06:37 2.2 °F -1.1 °F 1026.3 in Calm     79 % 0.0 in 0.0 W/m2 CLR
06:42 2.2 °F -1.1 °F 1026.3 in Calm     79 % 0.0 in 0.0 W/m2 CLR
06:47 2.2 °F -1.1 °F 1026.3 in Calm     79 % 0.0 in 0.0 W/m2 CLR
06:52 2.2 °F -1.1 °F 1026.3 in Calm     79 % 0.0 in 0.0 W/m2 CLR
06:57 2.2 °F -1.1 °F 1026.3 in Calm     79 % 0.0 in 0.0 W/m2 CLR
07:02 2.2 °F -1.1 °F 1026.3 in Calm     79 % 0.0 in 0.0 W/m2 CLR
07:07 2.2 °F -1.1 °F 1026.3 in Calm     79 % 0.0 in 0.0 W/m2 CLR
07:12 2.2 °F -1.1 °F 1026.3 in Calm     79 % 0.0 in 0.0 W/m2 CLR
07:17 2.2 °F -1.2 °F 1026.6 in Calm     78 % 0.0 in 0.0 W/m2 OVC
07:22 2.2 °F -1.2 °F 1026.6 in Calm     78 % 0.0 in 0.0 W/m2 OVC
07:27 2.2 °F -1.2 °F 1026.6 in Calm     78 % 0.0 in 5.0 W/m2 OVC
07:32 2.2 °F -1.4 °F 1026.6 in Calm     77 % 0.0 in 7.0 W/m2 OVC
07:37 2.2 °F -1.4 °F 1026.6 in Calm     77 % 0.0 in 9.0 W/m2 OVC
07:42 2.2 °F -1.4 °F 1026.6 in Calm     77 % 0.0 in 12.0 W/m2 OVC
07:52 2.2 °F -1.8 °F 1026.6 in Calm     75 % 0.0 in 16.0 W/m2 OVC
07:57 2.2 °F -1.9 °F 1026.6 in Calm     74 % 0.0 in 23.0 W/m2 OVC
08:02 2.2 °F -1.9 °F 1027.0 in Calm     74 % 0.0 in 33.0 W/m2 OVC
08:07 2.2 °F -2.1 °F 1027.0 in Calm     73 % 0.0 in 40.0 W/m2 OVC
08:12 2.2 °F -2.1 °F 1027.0 in Calm     73 % 0.0 in 56.0 W/m2 OVC
08:17 2.8 °F -1.9 °F 1027.0 in Calm     71 % 0.0 in 69.0 W/m2 OVC
08:22 2.8 °F -1.9 °F 1027.0 in Calm     71 % 0.0 in 83.0 W/m2 OVC
08:27 2.8 °F -2.2 °F 1027.0 in Calm     70 % 0.0 in 95.0 W/m2 CLR
08:32 3.3 °F -1.8 °F 1027.0 in Calm     69 % 0.0 in 91.0 W/m2 SCT
08:37 3.3 °F -2.0 °F 1027.0 in Calm     68 % 0.0 in 104.0 W/m2 CLR
08:42 3.9 °F -1.9 °F 1027.0 in Calm     66 % 0.0 in 116.0 W/m2 CLR
08:47 3.9 °F -2.1 °F 1027.0 in Calm     65 % 0.0 in 151.0 W/m2 CLR
08:52 4.4 °F -1.8 °F 1027.0 in Calm     64 % 0.0 in 181.0 W/m2 CLR
08:57 4.4 °F -2.0 °F 1027.0 in Calm     63 % 0.0 in 188.0 W/m2 CLR
09:02 5.0 °F -1.9 °F 1027.0 in SSE 6.4 mph 6.4 mph 61 % 0.0 in 202.0 W/m2 CLR
09:07 5.6 °F -1.8 °F 1026.6 in South 14.8 mph 14.8 mph 59 % 0.0 in 234.0 W/m2 CLR
09:12 6.7 °F -1.3 °F 1027.0 in South 16.7 mph 16.7 mph 57 % 0.0 in 250.0 W/m2 CLR
09:17 8.9 °F 0.6 °F 1027.0 in South 18.5 mph 18.5 mph 56 % 0.0 in 262.0 W/m2 CLR
09:22 10.6 °F 1.9 °F 1027.0 in SSW 18.5 mph 18.5 mph 55 % 0.0 in 276.0 W/m2 CLR
09:27 11.7 °F 2.7 °F 1027.0 in South 20.4 mph 20.4 mph 54 % 0.0 in 288.0 W/m2 CLR
09:32 12.2 °F 3.2 °F 1027.0 in South 16.7 mph 16.7 mph 54 % 0.0 in 304.0 W/m2 CLR
09:37 12.2 °F 2.9 °F 1027.0 in SSW 16.1 mph 16.1 mph 53 % 0.0 in 315.0 W/m2 CLR
09:42 12.8 °F 3.4 °F 1027.0 in South 14.8 mph 14.8 mph 53 % 0.0 in 329.0 W/m2 CLR
09:47 12.8 °F 3.2 °F 1027.0 in SSE 17.7 mph 17.7 mph 52 % 0.0 in 341.0 W/m2 CLR
09:52 12.8 °F 2.9 °F 1027.0 in South 25.9 mph 25.9 mph 51 % 0.0 in 355.0 W/m2 CLR
09:57 13.3 °F 3.9 °F 1027.0 in SSW 20.4 mph 20.4 mph 53 % 0.0 in 366.0 W/m2 CLR
10:02 13.3 °F 3.9 °F 1027.0 in SSW 18.5 mph 18.5 mph 53 % 0.0 in 378.0 W/m2 CLR
10:07 13.3 °F 3.9 °F 1027.0 in SW 31.5 mph 31.5 mph 53 % 0.0 in 390.0 W/m2 CLR
10:12 13.9 °F 4.4 °F 1026.6 in SSW 22.2 mph 22.2 mph 53 % 0.0 in 403.0 W/m2 CLR
10:17 13.9 °F 4.2 °F 1026.6 in SSW 25.7 mph 25.7 mph 52 % 0.0 in 413.0 W/m2 CLR
10:22 13.9 °F 4.2 °F 1026.6 in SSW 18.5 mph 18.5 mph 52 % 0.0 in 424.0 W/m2 CLR
10:27 13.9 °F 4.4 °F 1026.6 in South 27.8 mph 27.8 mph 53 % 0.0 in 434.0 W/m2 CLR
10:33 13.9 °F 4.4 °F 1026.6 in SSW 20.4 mph 20.4 mph 53 % 0.0 in 443.0 W/m2 CLR
10:38 13.9 °F 4.4 °F 1026.6 in SW 18.5 mph 19.0 mph 53 % 0.0 in 455.0 W/m2 CLR
10:43 14.4 °F 5.0 °F 1026.6 in SW 18.5 mph 18.5 mph 53 % 0.0 in 462.0 W/m2 CLR
10:48 14.4 °F 5.0 °F 1026.6 in SSW 25.9 mph 25.9 mph 53 % 0.0 in 471.0 W/m2 CLR
10:53 14.4 °F 5.0 °F 1026.6 in SW 22.2 mph 22.2 mph 53 % 0.0 in 480.0 W/m2 CLR
10:58 15.0 °F 5.2 °F 1026.6 in WSW 20.9 mph 20.9 mph 52 % 0.0 in 489.0 W/m2 CLR
11:03 15.0 °F 5.2 °F 1026.6 in SW 25.9 mph 25.9 mph 52 % 0.0 in 496.0 W/m2 CLR
11:08 15.0 °F 5.2 °F 1026.6 in WSW 27.8 mph 27.8 mph 52 % 0.0 in 504.0 W/m2 CLR
11:13 15.0 °F 5.2 °F 1026.6 in SW 25.9 mph 25.9 mph 52 % 0.0 in 513.0 W/m2 CLR
11:18 15.6 °F 5.7 °F 1026.3 in SW 25.9 mph 25.9 mph 52 % 0.0 in 520.0 W/m2 CLR
11:23 15.6 °F 5.4 °F 1026.3 in SW 24.1 mph 24.1 mph 51 % 0.0 in 527.0 W/m2 CLR
11:28 16.1 °F 5.9 °F 1026.3 in SW 20.4 mph 20.4 mph 51 % 0.0 in 534.0 W/m2 CLR
11:33 16.1 °F 5.7 °F 1026.3 in WSW 24.1 mph 24.1 mph 50 % 0.0 in 538.0 W/m2 CLR
11:38 16.1 °F 5.7 °F 1026.3 in SSW 22.2 mph 22.2 mph 50 % 0.0 in 543.0 W/m2 CLR
11:43 16.1 °F 5.7 °F 1026.0 in SW 20.4 mph 20.4 mph 50 % 0.0 in 550.0 W/m2 CLR
11:48 16.1 °F 5.4 °F 1026.0 in SSW 20.4 mph 20.4 mph 49 % 0.0 in 554.0 W/m2 CLR
11:53 16.7 °F 5.9 °F 1026.0 in SW 24.1 mph 24.1 mph 49 % 0.0 in 559.0 W/m2 CLR
11:58 16.7 °F 6.2 °F 1026.0 in SW 18.5 mph 18.5 mph 50 % 0.0 in 561.0 W/m2 CLR
12:03 16.7 °F 6.2 °F 1025.6 in SSW 16.7 mph 16.7 mph 50 % 0.0 in 566.0 W/m2 CLR
12:08 16.7 °F 5.9 °F 1025.6 in SW 20.4 mph 20.4 mph 49 % 0.0 in 570.0 W/m2 CLR
12:13 16.7 °F 5.9 °F 1025.6 in WSW 27.8 mph 27.8 mph 49 % 0.0 in 571.0 W/m2 CLR
12:18 17.2 °F 6.4 °F 1025.3 in SSW 19.3 mph 21.4 mph 49 % 0.0 in 573.0 W/m2 CLR
12:23 17.2 °F 6.4 °F 1025.3 in WSW 25.9 mph 25.9 mph 49 % 0.0 in 577.0 W/m2 CLR
12:28 16.7 °F 5.9 °F 1025.3 in SW 27.8 mph 27.8 mph 49 % 0.0 in 578.0 W/m2 CLR
12:33 17.2 °F 6.7 °F 1024.9 in SW 24.1 mph 24.1 mph 50 % 0.0 in 580.0 W/m2 CLR
12:39 17.8 °F 6.9 °F 1024.9 in WSW 24.1 mph 24.1 mph 49 % 0.0 in 580.0 W/m2 CLR
12:44 17.8 °F 6.9 °F 1024.9 in SSW 18.5 mph 18.5 mph 49 % 0.0 in 580.0 W/m2 CLR
12:49 18.3 °F 7.1 °F 1024.9 in SSW 24.1 mph 24.1 mph 48 % 0.0 in 582.0 W/m2 CLR
12:54 17.8 °F 6.3 °F 1024.9 in SW 25.9 mph 25.9 mph 47 % 0.0 in 578.0 W/m2 CLR
12:59 17.8 °F 6.6 °F 1024.6 in WSW 20.9 mph 20.9 mph 48 % 0.0 in 577.0 W/m2 CLR
13:04 17.8 °F 6.6 °F 1024.6 in WSW 20.4 mph 20.4 mph 48 % 0.0 in 577.0 W/m2 CLR
13:09 18.3 °F 6.8 °F 1024.6 in SW 20.9 mph 20.9 mph 47 % 0.0 in 573.0 W/m2 CLR
13:14 17.8 °F 6.3 °F 1024.3 in SSW 22.2 mph 22.2 mph 47 % 0.0 in 573.0 W/m2 CLR
13:19 18.3 °F 6.8 °F 1024.3 in SW 22.2 mph 22.2 mph 47 % 0.0 in 570.0 W/m2 CLR
13:24 18.3 °F 6.8 °F 1024.3 in WSW 22.2 mph 22.2 mph 47 % 0.0 in 568.0 W/m2 CLR
13:29 18.3 °F 6.5 °F 1024.3 in SW 25.9 mph 25.9 mph 46 % 0.0 in 564.0 W/m2 CLR
13:34 18.9 °F 7.0 °F 1024.3 in West 20.4 mph 20.4 mph 46 % 0.0 in 559.0 W/m2 CLR
13:39 18.9 °F 6.7 °F 1023.9 in SW 24.1 mph 24.1 mph 45 % 0.0 in 557.0 W/m2 CLR
13:44 18.9 °F 6.7 °F 1023.9 in WSW 25.9 mph 25.9 mph 45 % 0.0 in 552.0 W/m2 CLR
13:49 18.9 °F 6.7 °F 1023.9 in WSW 27.8 mph 27.8 mph 45 % 0.0 in 545.0 W/m2 CLR
13:54 18.9 °F 6.4 °F 1023.9 in SW 18.5 mph 18.5 mph 44 % 0.0 in 541.0 W/m2 CLR
13:59 18.9 °F 6.4 °F 1023.6 in West 27.8 mph 27.8 mph 44 % 0.0 in 536.0 W/m2 CLR
14:04 19.4 °F 6.9 °F 1023.6 in WSW 19.3 mph 19.3 mph 44 % 0.0 in 531.0 W/m2 CLR
14:09 18.9 °F 6.4 °F 1023.6 in SW 11.1 mph 11.1 mph 44 % 0.0 in 526.0 W/m2 CLR
14:14 18.9 °F 6.4 °F 1023.6 in SW 24.1 mph 24.1 mph 44 % 0.0 in 517.0 W/m2 CLR
14:19 19.4 °F 6.9 °F 1023.2 in SW 14.8 mph 14.8 mph 44 % 0.0 in 510.0 W/m2 CLR
14:24 19.4 °F 6.9 °F 1023.2 in SW 25.9 mph 25.9 mph 44 % 0.0 in 501.0 W/m2 CLR
14:29 19.4 °F 6.6 °F 1023.2 in WSW 24.1 mph 24.1 mph 43 % 0.0 in 494.0 W/m2 CLR
14:34 19.4 °F 6.9 °F 1023.2 in SW 25.9 mph 25.9 mph 44 % 0.0 in 485.0 W/m2 CLR
14:39 19.4 °F 6.6 °F 1023.2 in SW 24.1 mph 24.1 mph 43 % 0.0 in 476.0 W/m2 CLR
14:44 19.4 °F 6.6 °F 1022.9 in WSW 25.9 mph 25.9 mph 43 % 0.0 in 468.0 W/m2 CLR
14:49 19.4 °F 6.6 °F 1022.9 in WSW 20.4 mph 20.4 mph 43 % 0.0 in 459.0 W/m2 CLR
14:54 19.4 °F 6.2 °F 1022.9 in SSW 18.5 mph 18.5 mph 42 % 0.0 in 450.0 W/m2 CLR
14:59 19.4 °F 6.2 °F 1022.9 in SW 19.3 mph 19.3 mph 42 % 0.0 in 438.0 W/m2 CLR
15:04 19.4 °F 6.2 °F 1022.9 in WSW 18.5 mph 18.5 mph 42 % 0.0 in 427.0 W/m2 CLR
15:09 19.4 °F 6.2 °F 1022.9 in SW 16.7 mph 16.7 mph 42 % 0.0 in 415.0 W/m2 CLR
15:14 19.4 °F 6.2 °F 1022.9 in West 16.7 mph 16.7 mph 42 % 0.0 in 406.0 W/m2 CLR
15:19 19.4 °F 6.2 °F 1022.9 in WSW 27.8 mph 27.8 mph 42 % 0.0 in 396.0 W/m2 CLR
15:24 19.4 °F 6.2 °F 1022.9 in West 18.5 mph 18.5 mph 42 % 0.0 in 381.0 W/m2 CLR
15:29 19.4 °F 6.2 °F 1022.6 in WSW 25.9 mph 25.9 mph 42 % 0.0 in 371.0 W/m2 CLR
15:34 19.4 °F 6.2 °F 1022.6 in WSW 22.2 mph 22.2 mph 42 % 0.0 in 359.0 W/m2 CLR
15:39 19.4 °F 6.2 °F 1022.6 in SW 19.3 mph 19.3 mph 42 % 0.0 in 346.0 W/m2 CLR
15:44 19.4 °F 6.2 °F 1022.6 in West 18.5 mph 18.5 mph 42 % 0.0 in 332.0 W/m2 CLR
15:49 19.4 °F 6.2 °F 1022.6 in WSW 25.7 mph 25.7 mph 42 % 0.0 in 322.0 W/m2 CLR
15:54 19.4 °F 6.2 °F 1022.6 in West 24.1 mph 24.1 mph 42 % 0.0 in 309.0 W/m2 CLR
15:59 19.4 °F 6.2 °F 1022.6 in WSW 24.1 mph 24.1 mph 42 % 0.0 in 297.0 W/m2 CLR
16:04 19.4 °F 6.2 °F 1022.6 in WSW 27.8 mph 27.8 mph 42 % 0.0 in 281.0 W/m2 CLR
16:09 19.4 °F 6.2 °F 1022.6 in WSW 20.4 mph 20.4 mph 42 % 0.0 in 267.0 W/m2 CLR
16:14 19.4 °F 6.2 °F 1022.2 in SSW 19.3 mph 19.3 mph 42 % 0.0 in 253.0 W/m2 CLR
16:19 19.4 °F 6.2 °F 1022.2 in SW 18.5 mph 18.5 mph 42 % 0.0 in 237.0 W/m2 CLR
16:24 18.9 °F 5.7 °F 1022.2 in WSW 24.1 mph 24.1 mph 42 % 0.0 in 220.0 W/m2 CLR
16:29 18.9 °F 5.7 °F 1022.2 in WSW 16.7 mph 16.7 mph 42 % 0.0 in 204.0 W/m2 CLR
16:34 18.9 °F 5.7 °F 1022.2 in SW 18.5 mph 18.5 mph 42 % 0.0 in 188.0 W/m2 CLR
16:39 18.9 °F 5.7 °F 1022.2 in SW 22.2 mph 22.2 mph 42 % 0.0 in 172.0 W/m2 CLR
16:44 18.9 °F 5.7 °F 1022.2 in SSW 16.7 mph 16.7 mph 42 % 0.0 in 155.0 W/m2 CLR
16:49 18.3 °F 5.2 °F 1021.9 in WSW 22.2 mph 22.2 mph 42 % 0.0 in 135.0 W/m2 CLR
16:54 18.3 °F 5.2 °F 1021.9 in SSW 22.5 mph 22.5 mph 42 % 0.0 in 121.0 W/m2 CLR
16:59 18.3 °F 5.5 °F 1022.2 in SW 25.9 mph 25.9 mph 43 % 0.0 in 105.0 W/m2 CLR
17:04 18.3 °F 5.5 °F 1021.9 in SW 24.1 mph 24.1 mph 43 % 0.0 in 91.0 W/m2 CLR
17:09 18.3 °F 5.5 °F 1021.9 in SW 22.2 mph 22.2 mph 43 % 0.0 in 67.0 W/m2 SCT
17:14 18.3 °F 5.5 °F 1021.9 in SW 29.6 mph 29.6 mph 43 % 0.0 in 54.0 W/m2 SCT
17:19 18.3 °F 5.5 °F 1021.9 in WSW 24.1 mph 24.1 mph 43 % 0.0 in 44.0 W/m2 SCT
17:24 17.8 °F 5.0 °F 1021.9 in SW 20.4 mph 20.4 mph 43 % 0.0 in 35.0 W/m2 BKN
17:29 17.8 °F 5.0 °F 1021.9 in SSW 20.4 mph 20.4 mph 43 % 0.0 in 28.0 W/m2 BKN
17:34 17.8 °F 5.3 °F 1021.9 in SW 22.2 mph 22.2 mph 44 % 0.0 in 19.0 W/m2 BKN
17:39 17.8 °F 5.3 °F 1021.9 in WSW 20.4 mph 20.4 mph 44 % 0.0 in 14.0 W/m2 BKN
17:40 17.8 °F 5.3 °F 1021.9 in WSW 20.4 mph 20.4 mph 44 % 0.0 in 14.0 W/m2 BKN
17:45 17.2 °F 5.2 °F 1021.9 in SW 14.8 mph 14.8 mph 45 % 0.0 in 12.0 W/m2 BKN
17:50 17.2 °F 5.2 °F 1021.9 in SSW 14.5 mph 14.5 mph 45 % 0.0 in 9.0 W/m2 BKN
17:55 16.7 °F 4.7 °F 1021.9 in SW 11.3 mph 12.7 mph 45 % 0.0 in 7.0 W/m2 BKN
18:00 16.1 °F 4.5 °F 1021.9 in WSW 18.5 mph 18.5 mph 46 % 0.0 in 5.0 W/m2 OVC
18:05 16.1 °F 4.8 °F 1022.2 in SW 14.8 mph 14.8 mph 47 % 0.0 in 0.0 W/m2 CLR
18:10 16.1 °F 4.8 °F 1022.2 in SSW 11.1 mph 11.1 mph 47 % 0.0 in 0.0 W/m2 CLR
18:15 16.1 °F 4.8 °F 1022.2 in SSW 13.0 mph 13.0 mph 47 % 0.0 in 0.0 W/m2 CLR
18:20 15.6 °F 4.3 °F 1022.2 in Calm     47 % 0.0 in 0.0 W/m2 CLR
18:25 15.0 °F 4.1 °F 1022.2 in Calm     48 % 0.0 in 0.0 W/m2 CLR
18:30 14.4 °F 3.6 °F 1022.2 in Calm     48 % 0.0 in 0.0 W/m2 CLR
18:35 13.9 °F 3.1 °F 1022.2 in South 3.7 mph 3.7 mph 48 % 0.0 in 0.0 W/m2 CLR
18:40 13.3 °F 2.8 °F 1022.6 in Calm     49 % 0.0 in 0.0 W/m2 CLR
18:45 12.8 °F 2.3 °F 1022.6 in SSW 9.7 mph 9.7 mph 49 % 0.0 in 0.0 W/m2 CLR
18:50 12.8 °F 2.6 °F 1022.6 in SSW 9.7 mph 9.7 mph 50 % 0.0 in 0.0 W/m2 CLR
18:55 13.3 °F 3.1 °F 1022.6 in SSW 14.8 mph 14.8 mph 50 % 0.0 in 0.0 W/m2 CLR
19:00 13.3 °F 3.4 °F 1022.6 in SSW 13.0 mph 13.0 mph 51 % 0.0 in 0.0 W/m2 CLR
19:05 13.9 °F 3.9 °F 1022.6 in SSW 13.0 mph 13.0 mph 51 % 0.0 in 0.0 W/m2 CLR
19:10 14.4 °F 4.4 °F 1022.6 in SSW 18.5 mph 18.5 mph 51 % 0.0 in 0.0 W/m2 CLR
19:15 14.4 °F 4.7 °F 1022.6 in SSW 16.7 mph 16.7 mph 52 % 0.0 in 0.0 W/m2 CLR
19:20 15.0 °F 5.2 °F 1022.6 in SSW 13.0 mph 13.0 mph 52 % 0.0 in 0.0 W/m2 CLR
19:25 14.4 °F 5.0 °F 1022.6 in SSW 16.7 mph 16.7 mph 53 % 0.0 in 0.0 W/m2 CLR
19:30 15.0 °F 6.0 °F 1022.6 in SW 22.2 mph 22.2 mph 55 % 0.0 in 0.0 W/m2 CLR
19:35 15.0 °F 6.3 °F 1022.9 in SW 20.4 mph 20.4 mph 56 % 0.0 in 0.0 W/m2 CLR
19:40 15.0 °F 6.3 °F 1022.9 in SW 13.0 mph 13.0 mph 56 % 0.0 in 0.0 W/m2 CLR
19:45 14.4 °F 6.3 °F 1022.9 in SW 11.1 mph 11.1 mph 58 % 0.0 in 0.0 W/m2 CLR
19:50 14.4 °F 6.3 °F 1022.9 in South 16.7 mph 16.7 mph 58 % 0.0 in 0.0 W/m2 CLR
19:55 14.4 °F 6.5 °F 1022.9 in SSW 18.5 mph 18.5 mph 59 % 0.0 in 0.0 W/m2 CLR
20:00 14.4 °F 6.8 °F 1022.9 in SSW 22.2 mph 22.2 mph 60 % 0.0 in 0.0 W/m2 CLR
20:05 15.0 °F 7.6 °F 1022.9 in SSW 29.0 mph 29.0 mph 61 % 0.0 in 0.0 W/m2 CLR
20:10 14.4 °F 7.2 °F 1023.2 in SW 25.9 mph 25.9 mph 62 % 0.0 in 0.0 W/m2 CLR
20:15 14.4 °F 7.2 °F 1023.2 in SW 20.4 mph 20.4 mph 62 % 0.0 in 0.0 W/m2 CLR
20:16 14.4 °F 7.2 °F 1023.2 in SW 20.4 mph 20.4 mph 62 % 0.0 in 0.0 W/m2 CLR
20:21 14.4 °F 7.5 °F 1023.2 in SSW 18.5 mph 18.5 mph 63 % 0.0 in 0.0 W/m2 CLR
20:26 13.9 °F 6.9 °F 1023.2 in SSW 19.3 mph 19.3 mph 63 % 0.0 in 0.0 W/m2 CLR
20:31 13.9 °F 6.9 °F 1023.2 in SW 18.5 mph 18.5 mph 63 % 0.0 in 0.0 W/m2 CLR
20:36 13.9 °F 7.2 °F 1023.2 in South 20.4 mph 20.4 mph 64 % 0.0 in 0.0 W/m2 CLR
20:41 13.9 °F 7.4 °F 1023.2 in SSW 17.7 mph 17.7 mph 65 % 0.0 in 0.0 W/m2 CLR
20:46 13.9 °F 7.4 °F 1023.2 in South 20.4 mph 20.4 mph 65 % 0.0 in 0.0 W/m2 CLR
20:51 13.9 °F 7.4 °F 1023.2 in South 22.2 mph 22.2 mph 65 % 0.0 in 0.0 W/m2 CLR
20:56 13.9 °F 7.6 °F 1023.2 in SSW 31.5 mph 31.5 mph 66 % 0.0 in 0.0 W/m2 CLR
21:01 13.9 °F 7.6 °F 1023.2 in SSW 25.9 mph 25.9 mph 66 % 0.0 in 0.0 W/m2 CLR
21:06 13.9 °F 7.6 °F 1023.2 in SSW 25.9 mph 25.9 mph 66 % 0.0 in 0.0 W/m2 CLR
21:11 13.9 °F 7.8 °F 1023.2 in South 29.6 mph 29.6 mph 67 % 0.0 in 0.0 W/m2 CLR
21:16 13.3 °F 7.3 °F 1023.2 in SSW 20.4 mph 20.4 mph 67 % 0.0 in 0.0 W/m2 CLR
21:21 13.3 °F 7.3 °F 1023.2 in South 24.1 mph 24.1 mph 67 % 0.0 in 0.0 W/m2 CLR
21:26 13.3 °F 7.3 °F 1023.2 in South 25.7 mph 25.7 mph 67 % 0.0 in 0.0 W/m2 CLR
21:31 13.3 °F 7.6 °F 1023.2 in SSW 22.2 mph 22.2 mph 68 % 0.0 in 0.0 W/m2 CLR
21:36 13.3 °F 7.6 °F 1023.2 in South 18.5 mph 19.0 mph 68 % 0.0 in 0.0 W/m2 CLR
21:41 13.3 °F 7.6 °F 1023.2 in SSW 22.2 mph 22.2 mph 68 % 0.0 in 0.0 W/m2 CLR
21:46 13.3 °F 7.8 °F 1023.2 in South 22.5 mph 22.5 mph 69 % 0.0 in 0.0 W/m2 CLR
21:51 13.3 °F 7.8 °F 1023.2 in South 22.2 mph 22.2 mph 69 % 0.0 in 0.0 W/m2 CLR
21:56 13.3 °F 7.8 °F 1023.2 in SSW 18.5 mph 18.5 mph 69 % 0.0 in 0.0 W/m2 CLR
22:01 13.3 °F 8.0 °F 1023.2 in SSE 11.1 mph 11.1 mph 70 % 0.0 in 0.0 W/m2 CLR
22:06 13.3 °F 8.0 °F 1023.2 in SSW 18.5 mph 18.5 mph 70 % 0.0 in 0.0 W/m2 CLR
22:11 13.3 °F 8.0 °F 1023.2 in South 14.8 mph 14.8 mph 70 % 0.0 in 0.0 W/m2 CLR
22:16 12.8 °F 7.4 °F 1023.2 in South 18.5 mph 18.5 mph 70 % 0.0 in 0.0 W/m2 CLR
22:21 12.8 °F 7.4 °F 1023.2 in SSW 18.5 mph 18.5 mph 70 % 0.0 in 0.0 W/m2 CLR
22:26 12.8 °F 7.7 °F 1023.2 in SSW 20.4 mph 20.4 mph 71 % 0.0 in 0.0 W/m2 CLR
22:31 12.8 °F 7.7 °F 1023.2 in South 18.5 mph 18.5 mph 71 % 0.0 in 0.0 W/m2 CLR
22:36 12.8 °F 7.7 °F 1023.2 in SSW 24.1 mph 24.1 mph 71 % 0.0 in 0.0 W/m2 CLR
22:41 12.2 °F 7.3 °F 1023.2 in SSW 22.2 mph 22.2 mph 72 % 0.0 in 0.0 W/m2 CLR
22:46 12.2 °F 7.3 °F 1023.2 in SSW 20.4 mph 20.4 mph 72 % 0.0 in 0.0 W/m2 CLR
22:51 12.2 °F 7.5 °F 1022.9 in SSE 18.5 mph 18.5 mph 73 % 0.0 in 0.0 W/m2 CLR
22:56 12.2 °F 7.5 °F 1022.9 in South 14.8 mph 14.8 mph 73 % 0.0 in 0.0 W/m2 CLR
23:01 12.2 °F 7.5 °F 1022.9 in South 13.0 mph 13.0 mph 73 % 0.0 in 0.0 W/m2 CLR
23:06 12.2 °F 7.5 °F 1022.9 in SSE 13.0 mph 13.0 mph 73 % 0.0 in 0.0 W/m2 CLR
23:11 12.2 °F 7.5 °F 1022.9 in South 13.0 mph 13.0 mph 73 % 0.0 in 0.0 W/m2 CLR
23:16 12.2 °F 7.5 °F 1022.9 in SSE 9.7 mph 9.7 mph 73 % 0.0 in 0.0 W/m2 CLR
23:21 12.2 °F 7.5 °F 1022.9 in South 11.1 mph 11.1 mph 73 % 0.0 in 0.0 W/m2 CLR
23:26 11.7 °F 7.0 °F 1022.9 in SSE 13.0 mph 13.0 mph 73 % 0.0 in 0.0 W/m2 CLR
23:31 11.7 °F 7.0 °F 1022.9 in SSW 7.4 mph 7.4 mph 73 % 0.0 in 0.0 W/m2 CLR
23:36 12.2 °F 7.7 °F 1022.9 in South 16.7 mph 16.7 mph 74 % 0.0 in 0.0 W/m2 CLR
23:41 11.7 °F 7.2 °F 1022.6 in South 8.0 mph 8.0 mph 74 % 0.0 in 0.0 W/m2 CLR
23:46 12.2 °F 7.7 °F 1022.6 in SSE 5.6 mph 5.6 mph 74 % 0.0 in 0.0 W/m2 CLR
23:51 12.2 °F 7.7 °F 1022.6 in SSE 13.0 mph 13.0 mph 74 % 0.0 in 0.0 W/m2 CLR
23:56 12.8 °F 8.1 °F 1022.6 in SSW 7.4 mph 7.4 mph 73 % 0.0 in 0.0 W/m2 CLR
Lo Temps de Massalio
Compliments of Weather Underground - 1.25 mb